
Distance (Route):
Temperature : 5.6°C
Humidity : 75.3%
Pressure : 0hPa| Receiver | Date | Latitude | Longitude | Direction | Speed | Altitude | Climb | Temperature | Humidity | Pressure | Voltage | Killtimer | Uptime | BKT | XDATA |
|---|---|---|---|---|---|---|---|---|---|---|---|---|---|---|---|
| LZ4TU-5 | 2026-08-31 01:03:02 | 44.65692 | 20.85970 | 103° | 29km/h | 3427m | -16.1m/s | 5.6°C | 75.3% | 0hPa | 5.3V | 00:00:00 | 00:00:00 | 00:00:00 | |
| LZ4TU-5 | 2026-08-31 00:56:40 | 44.67118 | 20.82233 | 133° | 53km/h | 10616m | -22.3m/s | -45.3°C | 41.4% | 0hPa | 5.3V | 00:00:00 | 00:00:00 | 00:00:00 | |
| LZ4TU-5 | 2026-08-31 00:56:35 | 44.67162 | 20.82156 | 130° | 51km/h | 10723m | -22.3m/s | -46.2°C | 41.8% | 0hPa | 5.3V | 00:00:00 | 00:00:00 | 00:00:00 | |
| LZ4TU-5 | 2026-08-31 00:54:34 | 44.68037 | 20.80175 | 103° | 62km/h | 13721m | -27.7m/s | -58.9°C | 5.0% | 0hPa | 5.3V | 00:00:00 | 00:00:00 | 00:00:00 | |
| LZ4TU-5 | 2026-08-31 00:54:30 | 44.68050 | 20.80093 | 102° | 64km/h | 13839m | -27.9m/s | -59.2°C | 4.3% | 0hPa | 5.3V | 00:00:00 | 00:00:00 | 00:00:00 | |
| LZ4TU-5 | 2026-08-31 00:52:41 | 44.68373 | 20.78412 | 139° | 13km/h | 17292m | -36.1m/s | -57.0°C | 0.0% | 0hPa | 5.3V | 00:00:00 | 00:00:00 | 00:00:00 | |
| LZ4TU-5 | 2026-08-31 00:52:36 | 44.68380 | 20.78402 | 85° | 11km/h | 17480m | -36.8m/s | -57.0°C | 0.0% | 0hPa | 5.3V | 00:00:00 | 00:00:00 | 00:00:00 | |
| LZ4TU-5 | 2026-08-31 00:52:29 | 44.68371 | 20.78364 | 49° | 13km/h | 17738m | -37.5m/s | -56.5°C | 0.0% | 0hPa | 5.3V | 00:00:00 | 00:00:00 | 00:00:00 | |
| LZ4TU-5 | 2026-08-31 00:52:17 | 44.68333 | 20.78301 | 71° | 18km/h | 18203m | -38.4m/s | -59.2°C | 0.0% | 0hPa | 5.3V | 00:00:00 | 00:00:00 | 00:00:00 | |
| LZ4TU-5 | 2026-08-31 00:50:06 | 44.68176 | 20.78306 | 232° | 9km/h | 24458m | -60.0m/s | -51.6°C | 0.0% | 0hPa | 5.3V | 00:00:00 | 00:00:00 | 00:00:00 | |
| LZ4TU-5 | 2026-08-31 00:50:02 | 44.68180 | 20.78311 | 281° | 5km/h | 24693m | -61.5m/s | -51.3°C | 0.0% | 0hPa | 5.3V | 00:00:00 | 00:00:00 | 00:00:00 | |
| LZ4TU-5 | 2026-08-31 00:49:56 | 44.68184 | 20.78313 | 143° | 9km/h | 25070m | -63.2m/s | -50.2°C | 0.0% | 0hPa | 5.3V | 00:00:00 | 00:00:00 | 00:00:00 | |
| 9A1FER-3 | 2026-08-31 00:48:26 | 44.68073 | 20.78292 | 56° | 20km/h | 32066m | -59.9m/s | -41.7°C | 0% | 0hPa | 5.3V | 00:00:00 | 00:00:00 | 00:00:00 | |
| 9A1FER-3 | 2026-08-31 00:48:05 | 44.68086 | 20.78242 | 184° | 27km/h | 32243m | 5.7m/s | -41.8°C | 0% | 0hPa | 5.3V | 00:00:00 | 00:00:00 | 00:00:00 | |
| 9A1FER-3 | 2026-08-31 00:47:34 | 44.67896 | 20.78208 | 33° | 26km/h | 32033m | 9.7m/s | -43.2°C | 0% | 0hPa | 5.3V | 00:00:00 | 00:00:00 | 00:00:00 | |
| 9A1FER-3 | 2026-08-31 00:47:18 | 44.67835 | 20.78228 | 336° | 24km/h | 31930m | 7.3m/s | -43.4°C | 0% | 0hPa | 5.3V | 00:00:00 | 00:00:00 | 00:00:00 | |
| 9A1FER-3 | 2026-08-31 00:47:03 | 44.67771 | 20.78293 | 315° | 22km/h | 31828m | 5.6m/s | -43.2°C | 0% | 0hPa | 5.3V | 00:00:00 | 00:00:00 | 00:00:00 | |
| LZ4TU-5 | 2026-08-31 00:47:01 | 44.67769 | 20.78305 | 251° | 22km/h | 31813m | 7.8m/s | -43.2°C | 0.0% | 0hPa | 5.3V | 00:00:00 | 00:00:00 | 00:00:00 | |
| LZ4TU-5 | 2026-08-31 00:46:56 | 44.67776 | 20.78325 | 50° | 16km/h | 31782m | 9.3m/s | -43.0°C | 0.0% | 0hPa | 5.3V | 00:00:00 | 00:00:00 | 00:00:00 | |
| 9A1FER-3 | 2026-08-31 00:46:32 | 44.67712 | 20.78352 | 36° | 16km/h | 31618m | 10.1m/s | -42.8°C | 0% | 0hPa | 5.3V | 00:00:00 | 00:00:00 | 00:00:00 | |
| 9A1FER-3 | 2026-08-31 00:46:16 | 44.67674 | 20.78278 | 82° | 24km/h | 31502m | 8.4m/s | -43.1°C | 0% | 0hPa | 5.3V | 00:00:00 | 00:00:00 | 00:00:00 | |
| 9A1FER-3 | 2026-08-31 00:46:01 | 44.67657 | 20.78189 | 28° | 29km/h | 31397m | 7.7m/s | -43.5°C | 0% | 0hPa | 5.3V | 00:00:00 | 00:00:00 | 00:00:00 | |
| 9A1FER-3 | 2026-08-31 00:45:45 | 44.67571 | 20.78138 | 31° | 38km/h | 31288m | 8.4m/s | -43.4°C | 0% | 0hPa | 5.3V | 00:00:00 | 00:00:00 | 00:00:00 | |
| 9A1FER-10 | 2026-08-31 00:45:35 | 44.67521 | 20.78068 | 353° | 47km/h | 31215m | 6.5m/s | -43.4°C | 0% | 0hPa | 5.3V | 00:00:00 | 00:00:00 | 00:00:00 | |
| 9A1FER-3 | 2026-08-31 00:45:30 | 44.67482 | 20.78026 | 80° | 44km/h | 31181m | 9.0m/s | -43.3°C | 0% | 0hPa | 5.3V | 00:00:00 | 00:00:00 | 00:00:00 | |
| 9A1FER-3 | 2026-08-31 00:45:16 | 44.67405 | 20.77905 | 59° | 33km/h | 31085m | 5.5m/s | -42.6°C | 0% | 0hPa | 5.4V | 00:00:00 | 00:00:00 | 00:00:00 | |
| 9A1FER-10 | 2026-08-31 00:45:05 | 44.67349 | 20.77844 | 82° | 37km/h | 31009m | 4.5m/s | -42.1°C | 0% | 0hPa | 5.4V | 00:00:00 | 00:00:00 | 00:00:00 | |
| 9A1FER-3 | 2026-08-31 00:45:00 | 44.67319 | 20.77831 | 344° | 42km/h | 30975m | 8.3m/s | -41.9°C | 0% | 0hPa | 5.4V | 00:00:00 | 00:00:00 | 00:00:00 | |
| 9A1FER-10 | 2026-08-31 00:44:48 | 44.67252 | 20.77768 | 349° | 44km/h | 30894m | 8.4m/s | -41.6°C | 0% | 0hPa | 5.4V | 00:00:00 | 00:00:00 | 00:00:00 | |
| 9A1FER-3 | 2026-08-31 00:44:45 | 44.67210 | 20.77757 | 33° | 42km/h | 30880m | 6.6m/s | -41.6°C | 0% | 0hPa | 5.4V | 00:00:00 | 00:00:00 | 00:00:00 | |
| 9A1FER-10 | 2026-08-31 00:44:33 | 44.67108 | 20.77684 | 41° | 42km/h | 30789m | 8.4m/s | -41.3°C | 0% | 0hPa | 5.4V | 00:00:00 | 00:00:00 | 00:00:00 | |
| 9A1FER-3 | 2026-08-31 00:44:30 | 44.67102 | 20.77664 | 104° | 42km/h | 30776m | 5.5m/s | -41.3°C | 0% | 0hPa | 5.4V | 00:00:00 | 00:00:00 | 00:00:00 | |
| LZ4TU-5 | 2026-08-31 00:44:16 | 44.67001 | 20.77640 | 302° | 46km/h | 30680m | 4.9m/s | -40.8°C | 0.0% | 0hPa | 5.4V | 00:00:00 | 00:00:00 | 00:00:00 | |
| 9A1FER-3 | 2026-08-31 00:44:15 | 44.66994 | 20.77651 | 321° | 31km/h | 30677m | 3.2m/s | -40.7°C | 0% | 0hPa | 5.4V | 00:00:00 | 00:00:00 | 00:00:00 | |
| LZ4TU-5 | 2026-08-31 00:44:11 | 44.66969 | 20.77637 | 54° | 40km/h | 30642m | 9.1m/s | -40.5°C | 0.0% | 0hPa | 5.4V | 00:00:00 | 00:00:00 | 00:00:00 | |
| 9A1FER-3 | 2026-08-31 00:44:00 | 44.66904 | 20.77618 | 359° | 20km/h | 30565m | 6.9m/s | -40.0°C | 0% | 0hPa | 5.4V | 00:00:00 | 00:00:00 | 00:00:00 | |
| 9A1FER-3 | 2026-08-31 00:43:45 | 44.66844 | 20.77606 | 351° | 7km/h | 30463m | 6.9m/s | -40.5°C | 0% | 0hPa | 5.4V | 00:00:00 | 00:00:00 | 00:00:00 | |
| 9A1FER-3 | 2026-08-31 00:43:30 | 44.66846 | 20.77623 | 212° | 15km/h | 30364m | 6.8m/s | -41.7°C | 0% | 0hPa | 5.4V | 00:00:00 | 00:00:00 | 00:00:00 | |
| 9A1FER-3 | 2026-08-31 00:43:14 | 44.66891 | 20.77625 | 132° | 18km/h | 30257m | 8.3m/s | -42.0°C | 0% | 0hPa | 5.4V | 00:00:00 | 00:00:00 | 00:00:00 | |
| 9A1FER-3 | 2026-08-31 00:42:59 | 44.66910 | 20.77584 | 99° | 22km/h | 30158m | 7.9m/s | -42.7°C | 0% | 0hPa | 5.4V | 00:00:00 | 00:00:00 | 00:00:00 | |
| 9A1FER-3 | 2026-08-31 00:42:43 | 44.66917 | 20.77490 | 124° | 24km/h | 30044m | 8.5m/s | -45.1°C | 0% | 0hPa | 5.4V | 00:00:00 | 00:00:00 | 00:00:00 | |
| 9A1FER-3 | 2026-08-31 00:42:28 | 44.66852 | 20.77448 | 353° | 31km/h | 29934m | 9.4m/s | -45.7°C | 0% | 0hPa | 5.4V | 00:00:00 | 00:00:00 | 00:00:00 | |
| 9A1FER-3 | 2026-08-31 00:42:13 | 44.66729 | 20.77486 | 357° | 24km/h | 29830m | 6.3m/s | -45.8°C | 0% | 0hPa | 5.4V | 00:00:00 | 00:00:00 | 00:00:00 | |
| 9A1FER-3 | 2026-08-31 00:41:58 | 44.66654 | 20.77503 | 1° | 24km/h | 29714m | 8.9m/s | -45.8°C | 0% | 0hPa | 5.4V | 00:00:00 | 00:00:00 | 00:00:00 | |
| 9A1FER-3 | 2026-08-31 00:41:38 | 44.66517 | 20.77545 | 355° | 22km/h | 29566m | 7.9m/s | -45.6°C | 0% | 0hPa | 5.4V | 00:00:00 | 00:00:00 | 00:00:00 | |
| 9A1FER-3 | 2026-08-31 00:41:23 | 44.66447 | 20.77554 | 56° | 20km/h | 29453m | 8.9m/s | -45.2°C | 0% | 0hPa | 5.4V | 00:00:00 | 00:00:00 | 00:00:00 | |
| LZ4TU-5 | 2026-08-31 00:41:12 | 44.66393 | 20.77559 | 44° | 22km/h | 29365m | 6.4m/s | -45.7°C | 0.0% | 0hPa | 5.4V | 00:00:00 | 00:00:00 | 00:00:00 | |
| 9A1FER-3 | 2026-08-31 00:41:07 | 44.66384 | 20.77549 | 270° | 16km/h | 29338m | 6.8m/s | -45.4°C | 0% | 0hPa | 5.4V | 00:00:00 | 00:00:00 | 00:00:00 | |
| 9A1FER-3 | 2026-08-31 00:40:51 | 44.66339 | 20.77577 | 327° | 16km/h | 29223m | 8.0m/s | -45.0°C | 0% | 0hPa | 5.4V | 00:00:00 | 00:00:00 | 00:00:00 | |
| 9A1FER-3 | 2026-08-31 00:40:36 | 44.66286 | 20.77606 | 329° | 15km/h | 29120m | 8.0m/s | -45.4°C | 0% | 0hPa | 5.4V | 00:00:00 | 00:00:00 | 00:00:00 | |
| 9A1FER-3 | 2026-08-31 00:40:20 | 44.66225 | 20.77630 | 11° | 20km/h | 29011m | 4.3m/s | -45.6°C | 0% | 0hPa | 5.4V | 00:00:00 | 00:00:00 | 00:00:00 | |
| 9A1FER-3 | 2026-08-31 00:40:05 | 44.66199 | 20.77626 | 279° | 13km/h | 28909m | 6.2m/s | -45.6°C | 0% | 0hPa | 5.4V | 00:00:00 | 00:00:00 | 00:00:00 | |
| 9A1FER-3 | 2026-08-31 00:39:50 | 44.66192 | 20.77640 | 59° | 13km/h | 28808m | 7.2m/s | -45.9°C | 0% | 0hPa | 5.4V | 00:00:00 | 00:00:00 | 00:00:00 | |
| OE3JTB-15 | 2026-08-31 00:39:43 | 44.66160 | 20.77625 | 343° | 16km/h | 28742m | 9.1m/s | -45.7°C | 0% | 0hPa | 5.4V | 00:00:00 | 00:00:00 | 00:00:00 | |
| 9A1FER-3 | 2026-08-31 00:39:34 | 44.66131 | 20.77616 | 346° | 16km/h | 28701m | 8.6m/s | -45.6°C | 0% | 0hPa | 5.4V | 00:00:00 | 00:00:00 | 00:00:00 | |
| LZ4TU-5 | 2026-08-31 00:39:20 | 44.66096 | 20.77651 | 268° | 9km/h | 28612m | 5.3m/s | -46.6°C | 0.0% | 0hPa | 5.4V | 00:00:00 | 00:00:00 | 00:00:00 | |
| LZ4TU-5 | 2026-08-31 00:39:15 | 44.66092 | 20.77666 | 352° | 15km/h | 28580m | 5.7m/s | -46.5°C | 0.0% | 0hPa | 5.4V | 00:00:00 | 00:00:00 | 00:00:00 | |
| 9A1FER-3 | 2026-08-31 00:39:14 | 44.66089 | 20.77666 | 5° | 18km/h | 28573m | 6.8m/s | -46.0°C | 0% | 0hPa | 5.4V | 00:00:00 | 00:00:00 | 00:00:00 | |
| 9A1FER-3 | 2026-08-31 00:38:57 | 44.66056 | 20.77725 | 285° | 16km/h | 28463m | 6.4m/s | -45.9°C | 0% | 0hPa | 5.4V | 00:00:00 | 00:00:00 | 00:00:00 | |
| 9A1FER-3 | 2026-08-31 00:38:40 | 44.66040 | 20.77825 | 222° | 11km/h | 28352m | 6.5m/s | -46.1°C | 0% | 0hPa | 5.4V | 00:00:00 | 00:00:00 | 00:00:00 | |
| 9A1FER-3 | 2026-08-31 00:38:21 | 44.66070 | 20.77876 | 17° | 13km/h | 28232m | 7.7m/s | -46.1°C | 0% | 0hPa | 5.4V | 00:00:00 | 00:00:00 | 00:00:00 | |
| 9A1FER-3 | 2026-08-31 00:38:04 | 44.66080 | 20.77864 | 237° | 13km/h | 28111m | 6.5m/s | -46.3°C | 0% | 0hPa | 5.4V | 00:00:00 | 00:00:00 | 00:00:00 | |
| 9A1FER-3 | 2026-08-31 00:37:48 | 44.66107 | 20.77887 | 199° | 18km/h | 28010m | 7.2m/s | -46.3°C | 0% | 0hPa | 5.4V | 00:00:00 | 00:00:00 | 00:00:00 | |
| LZ4TU-5 | 2026-08-31 00:37:33 | 44.66158 | 20.77924 | 194° | 15km/h | 27898m | 6.6m/s | -46.7°C | 0.0% | 0hPa | 5.4V | 00:00:00 | 00:00:00 | 00:00:00 | |
| 9A1FER-3 | 2026-08-31 00:37:32 | 44.66158 | 20.77924 | 194° | 22km/h | 27898m | 6.5m/s | -46.2°C | 0% | 0hPa | 5.4V | 00:00:00 | 00:00:00 | 00:00:00 | |
| LZ4TU-5 | 2026-08-31 00:37:28 | 44.66171 | 20.77932 | 227° | 15km/h | 27872m | 5.2m/s | -46.6°C | 0.0% | 0hPa | 5.4V | 00:00:00 | 00:00:00 | 00:00:00 | |
| 9A1FER-3 | 2026-08-31 00:37:14 | 44.66242 | 20.77918 | 142° | 15km/h | 27764m | 6.5m/s | -46.0°C | 0% | 0hPa | 5.4V | 00:00:00 | 00:00:00 | 00:00:00 | |
| 9A1FER-3 | 2026-08-31 00:36:53 | 44.66286 | 20.77849 | 28° | 18km/h | 27631m | 5.9m/s | -46.2°C | 0% | 0hPa | 5.4V | 00:00:00 | 00:00:00 | 00:00:00 | |
| 9A1FER-3 | 2026-08-31 00:36:23 | 44.66241 | 20.77695 | 76° | 9km/h | 27425m | 9.0m/s | -47.2°C | 0% | 0hPa | 5.4V | 00:00:00 | 00:00:00 | 00:00:00 | |
| 9A1FER-3 | 2026-08-31 00:36:07 | 44.66225 | 20.77646 | 85° | 11km/h | 27313m | 6.0m/s | -48.0°C | 0% | 0hPa | 5.4V | 00:00:00 | 00:00:00 | 00:00:00 | |
| 9A1FER-3 | 2026-08-31 00:35:52 | 44.66236 | 20.77618 | 129° | 13km/h | 27209m | 6.9m/s | -48.5°C | 0% | 0hPa | 5.4V | 00:00:00 | 00:00:00 | 00:00:00 | |
| 9A1FER-3 | 2026-08-31 00:35:35 | 44.66271 | 20.77604 | 131° | 18km/h | 27098m | 5.8m/s | -48.8°C | 0% | 0hPa | 5.4V | 00:00:00 | 00:00:00 | 00:00:00 | |
| LZ4TU-5 | 2026-08-31 00:35:23 | 44.66306 | 20.77589 | 116° | 20km/h | 27019m | 7.5m/s | -49.4°C | 0.0% | 0hPa | 5.5V | 00:00:00 | 00:00:00 | 00:00:00 | |
| 9A1FER-3 | 2026-08-31 00:35:19 | 44.66322 | 20.77563 | 147° | 22km/h | 26994m | 5.9m/s | -49.0°C | 0% | 0hPa | 5.5V | 00:00:00 | 00:00:00 | 00:00:00 | |
| LZ4TU-5 | 2026-08-31 00:35:18 | 44.66326 | 20.77560 | 158° | 11km/h | 26988m | 6.3m/s | -49.6°C | 0.0% | 0hPa | 5.5V | 00:00:00 | 00:00:00 | 00:00:00 | |
| 9A1FER-3 | 2026-08-31 00:35:03 | 44.66387 | 20.77545 | 141° | 24km/h | 26889m | 6.5m/s | -49.0°C | 0% | 0hPa | 5.5V | 00:00:00 | 00:00:00 | 00:00:00 | |
| 9A1FER-3 | 2026-08-31 00:34:46 | 44.66449 | 20.77434 | 109° | 24km/h | 26784m | 6.4m/s | -49.3°C | 0% | 0hPa | 5.5V | 00:00:00 | 00:00:00 | 00:00:00 | |
| 9A1FER-3 | 2026-08-31 00:34:31 | 44.66482 | 20.77332 | 82° | 15km/h | 26689m | 5.4m/s | -50.2°C | 0% | 0hPa | 5.5V | 00:00:00 | 00:00:00 | 00:00:00 | |
| 9A1FER-3 | 2026-08-31 00:34:14 | 44.66459 | 20.77266 | 355° | 13km/h | 26580m | 5.0m/s | -51.6°C | 0% | 0hPa | 5.5V | 00:00:00 | 00:00:00 | 00:00:00 | |
| 9A1FER-3 | 2026-08-31 00:33:56 | 44.66424 | 20.77242 | 35° | 16km/h | 26462m | 9.1m/s | -51.4°C | 0% | 0hPa | 5.5V | 00:00:00 | 00:00:00 | 00:00:00 | |
| 9A1FER-3 | 2026-08-31 00:33:39 | 44.66368 | 20.77289 | 288° | 18km/h | 26346m | 9.7m/s | -51.0°C | 0% | 0hPa | 5.5V | 00:00:00 | 00:00:00 | 00:00:00 | |
| LZ4TU-5 | 2026-08-31 00:33:37 | 44.66366 | 20.77312 | 273° | 27km/h | 26336m | 5.9m/s | -51.6°C | 0.0% | 0hPa | 5.5V | 00:00:00 | 00:00:00 | 00:00:00 | |
| LZ4TU-5 | 2026-08-31 00:33:32 | 44.66366 | 20.77325 | 194° | 4km/h | 26299m | 5.1m/s | -51.6°C | 0.0% | 0hPa | 5.5V | 00:00:00 | 00:00:00 | 00:00:00 | |
| 9A1FER-3 | 2026-08-31 00:33:21 | 44.66381 | 20.77367 | 221° | 16km/h | 26223m | 8.0m/s | -51.2°C | 0% | 0hPa | 5.5V | 00:00:00 | 00:00:00 | 00:00:00 | |
| 9A1FER-3 | 2026-08-31 00:33:03 | 44.66423 | 20.77432 | 318° | 16km/h | 26102m | 7.2m/s | -51.4°C | 0% | 0hPa | 5.5V | 00:00:00 | 00:00:00 | 00:00:00 | |
| 9A1FER-3 | 2026-08-31 00:32:47 | 44.66417 | 20.77477 | 185° | 15km/h | 25995m | 8.9m/s | -50.7°C | 0% | 0hPa | 5.5V | 00:00:00 | 00:00:00 | 00:00:00 | |
| 9A1FER-3 | 2026-08-31 00:32:29 | 44.66402 | 20.77451 | 22° | 9km/h | 25870m | 7.5m/s | -51.1°C | 0% | 0hPa | 5.5V | 00:00:00 | 00:00:00 | 00:00:00 | |
| 9A1FER-3 | 2026-08-31 00:32:13 | 44.66365 | 20.77461 | 344° | 11km/h | 25763m | 7.8m/s | -51.0°C | 0% | 0hPa | 5.5V | 00:00:00 | 00:00:00 | 00:00:00 | |
| 9A1FER-3 | 2026-08-31 00:31:57 | 44.66337 | 20.77510 | 254° | 15km/h | 25648m | 7.6m/s | -50.8°C | 0% | 0hPa | 5.5V | 00:00:00 | 00:00:00 | 00:00:00 | |
| LZ4TU-5 | 2026-08-31 00:31:47 | 44.66333 | 20.77540 | 313° | 15km/h | 25589m | 6.4m/s | -51.4°C | 0.0% | 0hPa | 5.5V | 00:00:00 | 00:00:00 | 00:00:00 | |
| LZ4TU-5 | 2026-08-31 00:31:43 | 44.66343 | 20.77566 | 226° | 27km/h | 25559m | 7.5m/s | -51.5°C | 0.0% | 0hPa | 5.5V | 00:00:00 | 00:00:00 | 00:00:00 | |
| 9A1FER-3 | 2026-08-31 00:31:30 | 44.66382 | 20.77593 | 188° | 20km/h | 25473m | 7.1m/s | -50.7°C | 0% | 0hPa | 5.5V | 00:00:00 | 00:00:00 | 00:00:00 | |
| 9A1FER-3 | 2026-08-31 00:31:13 | 44.66459 | 20.77574 | 178° | 16km/h | 25364m | 4.1m/s | -50.9°C | 0% | 0hPa | 5.5V | 00:00:00 | 00:00:00 | 00:00:00 | |
| 9A1FER-3 | 2026-08-31 00:30:53 | 44.66512 | 20.77508 | 111° | 24km/h | 25228m | 6.6m/s | -50.8°C | 0% | 0hPa | 5.5V | 00:00:00 | 00:00:00 | 00:00:00 | |
| 9A1FER-3 | 2026-08-31 00:30:36 | 44.66514 | 20.77406 | 61° | 11km/h | 25116m | 6.3m/s | -51.4°C | 0% | 0hPa | 5.5V | 00:00:00 | 00:00:00 | 00:00:00 | |
| LZ4TU-5 | 2026-08-31 00:30:06 | 44.66430 | 20.77333 | 0° | 0km/h | 24923m | 6.5m/s | -53.1°C | 0.0% | 0hPa | 5.5V | 00:00:00 | 00:00:00 | 00:00:00 | |
| 9A1FER-3 | 2026-08-31 00:29:31 | 44.66399 | 20.77428 | 244° | 16km/h | 24695m | 6.6m/s | -51.9°C | 0% | 0hPa | 5.5V | 00:00:00 | 00:00:00 | 00:00:00 | |
| OE3JTB-15 | 2026-08-31 00:29:30 | 44.66407 | 20.77456 | 267° | 15km/h | 24670m | 6.4m/s | -51.9°C | 0% | 0hPa | 5.5V | 00:00:00 | 00:00:00 | 00:00:00 | |
| OE3JTB-15 | 2026-08-31 00:29:00 | 44.66408 | 20.77557 | 309° | 9km/h | 24472m | 6.2m/s | -52.4°C | 0% | 0hPa | 5.5V | 00:00:00 | 00:00:00 | 00:00:00 | |
| LZ4TU-5 | 2026-08-31 00:28:28 | 44.66366 | 20.77488 | 22° | 16km/h | 24281m | 7.2m/s | -53.8°C | 0.0% | 0hPa | 5.6V | 00:00:00 | 00:00:00 | 00:00:00 | |
| LZ4TU-5 | 2026-08-31 00:28:24 | 44.66345 | 20.77491 | 13° | 9km/h | 24250m | 5.3m/s | -53.7°C | 0.0% | 0hPa | 5.6V | 00:00:00 | 00:00:00 | 00:00:00 | |
| LZ4TU-5 | 2026-08-31 00:26:46 | 44.66123 | 20.77761 | 223° | 18km/h | 23627m | 9.3m/s | -55.3°C | 0.0% | 0hPa | 5.6V | 00:00:00 | 00:00:00 | 00:00:00 | |
| LZ4TU-5 | 2026-08-31 00:26:41 | 44.66128 | 20.77774 | 339° | 9km/h | 23596m | 5.6m/s | -55.3°C | 0.0% | 0hPa | 5.6V | 00:00:00 | 00:00:00 | 00:00:00 | |
| LZ4TU-5 | 2026-08-31 00:24:58 | 44.65784 | 20.78277 | 223° | 15km/h | 22929m | 6.9m/s | -54.7°C | 0.0% | 0hPa | 5.6V | 00:00:00 | 00:00:00 | 00:00:00 | |
| LZ4TU-5 | 2026-08-31 00:24:54 | 44.65803 | 20.78292 | 217° | 24km/h | 22902m | 5.1m/s | -54.9°C | 0.0% | 0hPa | 5.6V | 00:00:00 | 00:00:00 | 00:00:00 | |
| OE3JTB-15 | 2026-08-31 00:24:43 | 44.65820 | 20.78338 | 271° | 7km/h | 22810m | 6.7m/s | -54.1°C | 0% | 0hPa | 5.6V | 00:00:00 | 00:00:00 | 00:00:00 | |
| OE3JTB-15 | 2026-08-31 00:24:09 | 44.65834 | 20.78389 | 313° | 18km/h | 22597m | 6.8m/s | -54.8°C | 0% | 0hPa | 5.6V | 00:00:00 | 00:00:00 | 00:00:00 | |
| OE3JTB-15 | 2026-08-31 00:23:39 | 44.65737 | 20.78520 | 319° | 20km/h | 22415m | 5.7m/s | -55.1°C | 0% | 0hPa | 5.6V | 00:00:00 | 00:00:00 | 00:00:00 | |
| LZ4TU-5 | 2026-08-31 00:23:23 | 44.65719 | 20.78618 | 303° | 13km/h | 22337m | 5.9m/s | -56.0°C | 0.0% | 0hPa | 5.6V | 00:00:00 | 00:00:00 | 00:00:00 | |
| LZ4TU-5 | 2026-08-31 00:23:18 | 44.65717 | 20.78647 | 251° | 24km/h | 22307m | 5.7m/s | -55.9°C | 0.0% | 0hPa | 5.6V | 00:00:00 | 00:00:00 | 00:00:00 | |
| OE3JTB-15 | 2026-08-31 00:23:08 | 44.65729 | 20.78732 | 258° | 16km/h | 22228m | 5.1m/s | -54.8°C | 0% | 0hPa | 5.6V | 00:00:00 | 00:00:00 | 00:00:00 | |
| LZ4TU-5 | 2026-08-31 00:21:42 | 44.65799 | 20.79091 | 258° | 16km/h | 21726m | 5.6m/s | -55.5°C | 0.0% | 0hPa | 5.6V | 00:00:00 | 00:00:00 | 00:00:00 | |
| LZ4TU-5 | 2026-08-31 00:21:37 | 44.65804 | 20.79090 | 119° | 20km/h | 21693m | 5.4m/s | -55.4°C | 0.0% | 0hPa | 5.6V | 00:00:00 | 00:00:00 | 00:00:00 | |
| LZ4TU-5 | 2026-08-31 00:20:01 | 44.65732 | 20.78844 | 40° | 24km/h | 21101m | 6.5m/s | -55.1°C | 0.1% | 0hPa | 5.6V | 00:00:00 | 00:00:00 | 00:00:00 | |
| LZ4TU-5 | 2026-08-31 00:19:56 | 44.65712 | 20.78843 | 13° | 7km/h | 21071m | 6.2m/s | -55.2°C | 0.2% | 0hPa | 5.6V | 00:00:00 | 00:00:00 | 00:00:00 | |
| LZ4TU-5 | 2026-08-31 00:18:21 | 44.65571 | 20.78723 | 23° | 15km/h | 20509m | 6.4m/s | -56.7°C | 0.2% | 0hPa | 5.6V | 00:00:00 | 00:00:00 | 00:00:00 | |
| LZ4TU-5 | 2026-08-31 00:18:16 | 44.65558 | 20.78718 | 28° | 11km/h | 20479m | 6.3m/s | -56.9°C | 0.2% | 0hPa | 5.6V | 00:00:00 | 00:00:00 | 00:00:00 | |
| LZ4TU-5 | 2026-08-31 00:16:34 | 44.65297 | 20.78685 | 0° | 0km/h | 19881m | 5.3m/s | -58.1°C | 0.3% | 0hPa | 5.6V | 00:00:00 | 00:00:00 | 00:00:00 | |
| LZ4TU-5 | 2026-08-31 00:16:30 | 44.65295 | 20.78690 | 315° | 4km/h | 19859m | 5.2m/s | -58.1°C | 0.4% | 0hPa | 5.6V | 00:00:00 | 00:00:00 | 00:00:00 | |
| OE3JTB-15 | 2026-08-31 00:15:19 | 44.65176 | 20.78632 | 305° | 16km/h | 19444m | 6.4m/s | -56.7°C | 0% | 0hPa | 5.6V | 00:00:00 | 00:00:00 | 00:00:00 | |
| LZ4TU-5 | 2026-08-31 00:14:53 | 44.65143 | 20.78747 | 294° | 11km/h | 19290m | 5.6m/s | -57.7°C | 0.9% | 0hPa | 5.6V | 00:00:00 | 00:00:00 | 00:00:00 | |
| OE3JTB-15 | 2026-08-31 00:14:21 | 44.65167 | 20.78925 | 250° | 13km/h | 19101m | 4.8m/s | -55.9°C | 0% | 0hPa | 5.6V | 00:00:00 | 00:00:00 | 00:00:00 | |
| LZ4TU-5 | 2026-08-31 00:13:23 | 44.65153 | 20.78861 | 91° | 18km/h | 18778m | 5.7m/s | -57.4°C | 0.7% | 0hPa | 0V | 00:00:00 | 00:00:00 | 00:00:00 | |
| LZ4TU-5 | 2026-08-31 00:13:18 | 44.65151 | 20.78845 | 108° | 5km/h | 18750m | 5.0m/s | -57.8°C | 0.8% | 0hPa | 0V | 00:00:00 | 00:00:00 | 00:00:00 | |
| LZ4TU-5 | 2026-08-31 00:11:49 | 44.65241 | 20.78312 | 38° | 16km/h | 18263m | 5.9m/s | -60.3°C | 1.2% | 0hPa | 0V | 00:00:00 | 00:00:00 | 00:00:00 | |
| LZ4TU-5 | 2026-08-31 00:11:44 | 44.65231 | 20.78278 | 74° | 27km/h | 18234m | 6.0m/s | -60.4°C | 1.3% | 0hPa | 0V | 00:00:00 | 00:00:00 | 00:00:00 | |
| LZ4TU-5 | 2026-08-31 00:10:08 | 44.64936 | 20.77812 | 78° | 16km/h | 17688m | 5.0m/s | -57.6°C | 1.7% | 0hPa | 0V | 00:00:00 | 00:00:00 | 00:00:00 | |
| LZ4TU-5 | 2026-08-31 00:10:03 | 44.64941 | 20.77790 | 99° | 15km/h | 17661m | 4.7m/s | -57.8°C | 1.8% | 0hPa | 0V | 00:00:00 | 00:00:00 | 00:00:00 | |
| LZ4TU-5 | 2026-08-31 00:08:02 | 44.65130 | 20.77127 | 99° | 37km/h | 17000m | 4.9m/s | -58.2°C | 2.1% | 0hPa | 0V | 00:00:00 | 00:00:00 | 00:00:00 | |
| LZ4TU-5 | 2026-08-31 00:06:52 | 44.65279 | 20.76307 | 101° | 31km/h | 16620m | 4.7m/s | -59.2°C | 2.4% | 0hPa | 0V | 00:00:00 | 00:00:00 | 00:00:00 | |
| LZ4TU-5 | 2026-08-31 00:06:48 | 44.65290 | 20.76261 | 114° | 33km/h | 16598m | 5.6m/s | -59.3°C | 2.5% | 0hPa | 0V | 00:00:00 | 00:00:00 | 00:00:00 | |
| LZ4TU-5 | 2026-08-31 00:05:48 | 44.65227 | 20.75641 | 74° | 18km/h | 16283m | 5.5m/s | -60.6°C | 3.2% | 0hPa | 0V | 00:00:00 | 00:00:00 | 00:00:00 | |
| LZ4TU-5 | 2026-08-31 00:05:43 | 44.65224 | 20.75603 | 113° | 20km/h | 16257m | 4.3m/s | -60.6°C | 3.3% | 0hPa | 0V | 00:00:00 | 00:00:00 | 00:00:00 | |
| LZ4TU-5 | 2026-08-31 00:04:58 | 44.65256 | 20.75097 | 89° | 38km/h | 16028m | 5.2m/s | -60.4°C | 3.6% | 0hPa | 0V | 00:00:00 | 00:00:00 | 00:00:00 | |
| LZ4TU-5 | 2026-08-31 00:04:54 | 44.65249 | 20.75038 | 88° | 31km/h | 16001m | 5.8m/s | -60.5°C | 3.7% | 0hPa | 0V | 00:00:00 | 00:00:00 | 00:00:00 | |
| LZ4TU-5 | 2026-08-31 00:04:04 | 44.65311 | 20.74550 | 136° | 33km/h | 15753m | 5.1m/s | -59.8°C | 4.7% | 0hPa | 0V | 00:00:00 | 00:00:00 | 00:00:00 | |
| LZ4TU-5 | 2026-08-31 00:04:01 | 44.65327 | 20.74521 | 115° | 27km/h | 15734m | 5.2m/s | -59.6°C | 4.8% | 0hPa | 0V | 00:00:00 | 00:00:00 | 00:00:00 | |
| LZ4TU-5 | 2026-08-31 00:03:19 | 44.65551 | 20.74075 | 123° | 33km/h | 15505m | 5.7m/s | -58.7°C | 6.0% | 0hPa | 0V | 00:00:00 | 00:00:00 | 00:00:00 | |
| LZ4TU-5 | 2026-08-31 00:03:13 | 44.65575 | 20.74010 | 120° | 51km/h | 15480m | 4.8m/s | -58.6°C | 6.2% | 0hPa | 0V | 00:00:00 | 00:00:00 | 00:00:00 | |
| LZ4TU-5 | 2026-08-31 00:02:54 | 44.65903 | 20.72922 | 104° | 60km/h | 15184m | 4.8m/s | -58.8°C | 7.9% | 0hPa | 0V | 00:00:00 | 00:00:00 | 00:00:00 | |
| LZ4TU-5 | 2026-08-31 00:00:45 | 44.66084 | 20.70797 | 90° | 53km/h | 14689m | 5.0m/s | -59.1°C | 9.8% | 0hPa | 0V | 00:00:00 | 00:00:00 | 00:00:00 | |
| LZ4TU-5 | 2026-08-31 00:00:43 | 44.66079 | 20.70701 | 85° | 49km/h | 14664m | 4.6m/s | -59.0°C | 9.8% | 0hPa | 0V | 00:00:00 | 00:00:00 | 00:00:00 | |
| LZ4TU-5 | 2026-08-30 23:59:06 | 44.66350 | 20.69163 | 116° | 51km/h | 14173m | 6.6m/s | -58.4°C | 13.3% | 0hPa | 0V | 00:00:00 | 00:00:00 | 00:00:00 | |
| LZ4TU-5 | 2026-08-30 23:59:01 | 44.66371 | 20.69078 | 113° | 51km/h | 14142m | 7.7m/s | -58.5°C | 13.7% | 0hPa | 0V | 00:00:00 | 00:00:00 | 00:00:00 | |
| LZ4TU-5 | 2026-08-30 23:57:36 | 44.66694 | 20.67300 | 112° | 64km/h | 13624m | 4.7m/s | -58.9°C | 16.9% | 0hPa | 0V | 00:00:00 | 00:00:00 | 00:00:00 | |
| LZ4TU-5 | 2026-08-30 23:57:31 | 44.66714 | 20.67180 | 92° | 62km/h | 13595m | 7.3m/s | -58.6°C | 17.0% | 0hPa | 0V | 00:00:00 | 00:00:00 | 00:00:00 | |
| LZ4TU-5 | 2026-08-30 23:55:59 | 44.67195 | 20.65497 | 134° | 69km/h | 13126m | 4.7m/s | -58.6°C | 22.7% | 0hPa | 0V | 00:00:00 | 00:00:00 | 00:00:00 | |
| LZ4TU-5 | 2026-08-30 23:55:55 | 44.67245 | 20.65424 | 130° | 73km/h | 13106m | 4.8m/s | -58.4°C | 23.2% | 0hPa | 0V | 00:00:00 | 00:00:00 | 00:00:00 | |
| LZ4TU-5 | 2026-08-30 23:54:24 | 44.67964 | 20.63655 | 119° | 68km/h | 12683m | 4.4m/s | -57.9°C | 41.0% | 0hPa | 0V | 00:00:00 | 00:00:00 | 00:00:00 | |
| LZ4TU-5 | 2026-08-30 23:54:19 | 44.67999 | 20.63564 | 105° | 49km/h | 12662m | 3.8m/s | -57.8°C | 42.2% | 0hPa | 0V | 00:00:00 | 00:00:00 | 00:00:00 | |
| LZ4TU-5 | 2026-08-30 23:52:40 | 44.68711 | 20.61807 | 119° | 51km/h | 12053m | 7.2m/s | -57.2°C | 49.6% | 0hPa | 0V | 00:00:00 | 00:00:00 | 00:00:00 | |
| LZ4TU-5 | 2026-08-30 23:52:35 | 44.68743 | 20.61744 | 119° | 57km/h | 12026m | 6.6m/s | -57.0°C | 50.1% | 0hPa | 0V | 00:00:00 | 00:00:00 | 00:00:00 | |
| LZ4TU-5 | 2026-08-30 23:51:50 | 44.69045 | 20.61007 | 121° | 33km/h | 11803m | 4.9m/s | -55.7°C | 55.0% | 0hPa | 0V | 00:00:00 | 00:00:00 | 00:00:00 | |
| LZ4TU-5 | 2026-08-30 23:51:45 | 44.69072 | 20.60930 | 119° | 64km/h | 11783m | 4.3m/s | -55.6°C | 55.2% | 0hPa | 0V | 00:00:00 | 00:00:00 | 00:00:00 | |
| LZ4TU-5 | 2026-08-30 23:50:54 | 44.69425 | 20.60222 | 136° | 46km/h | 11513m | 5.3m/s | -53.6°C | 54.3% | 0hPa | 0V | 00:00:00 | 00:00:00 | 00:00:00 | |
| LZ4TU-5 | 2026-08-30 23:50:49 | 44.69453 | 20.60160 | 116° | 53km/h | 11483m | 5.5m/s | -53.3°C | 55.5% | 0hPa | 0V | 00:00:00 | 00:00:00 | 00:00:00 | |
| LZ4TU-5 | 2026-08-30 23:50:06 | 44.69779 | 20.59564 | 127° | 57km/h | 11240m | 5.8m/s | -51.2°C | 50.6% | 0hPa | 0V | 00:00:00 | 00:00:00 | 00:00:00 | |
| LZ4TU-5 | 2026-08-30 23:50:01 | 44.69807 | 20.59485 | 127° | 49km/h | 11212m | 4.7m/s | -50.9°C | 49.1% | 0hPa | 0V | 00:00:00 | 00:00:00 | 00:00:00 | |
| LZ4TU-5 | 2026-08-30 23:49:10 | 44.70167 | 20.58774 | 137° | 51km/h | 10961m | 6.5m/s | -48.6°C | 42.7% | 0hPa | 0V | 00:00:00 | 00:00:00 | 00:00:00 | |
| LZ4TU-5 | 2026-08-30 23:49:05 | 44.70207 | 20.58716 | 124° | 40km/h | 10932m | 5.4m/s | -48.4°C | 42.2% | 0hPa | 0V | 00:00:00 | 00:00:00 | 00:00:00 | |
| LZ4TU-5 | 2026-08-30 23:48:20 | 44.70546 | 20.58118 | 126° | 55km/h | 10675m | 5.7m/s | -46.0°C | 33.3% | 0hPa | 0V | 00:00:00 | 00:00:00 | 00:00:00 | |
| LZ4TU-5 | 2026-08-30 23:48:16 | 44.70571 | 20.58062 | 120° | 44km/h | 10655m | 4.6m/s | -45.9°C | 33.3% | 0hPa | 0V | 00:00:00 | 00:00:00 | 00:00:00 | |
| LZ4TU-5 | 2026-08-30 23:47:24 | 44.70942 | 20.57353 | 122° | 57km/h | 10344m | 7.6m/s | -43.2°C | 26.9% | 0hPa | 0V | 00:00:00 | 00:00:00 | 00:00:00 | |
| LZ4TU-5 | 2026-08-30 23:47:19 | 44.70994 | 20.57275 | 136° | 58km/h | 10311m | 5.7m/s | -42.9°C | 27.1% | 0hPa | 0V | 00:00:00 | 00:00:00 | 00:00:00 | |
| LZ4TU-5 | 2026-08-30 23:46:33 | 44.71309 | 20.56665 | 122° | 38km/h | 10066m | 4.4m/s | -40.7°C | 26.0% | 0hPa | 0V | 00:00:00 | 00:00:00 | 00:00:00 | |
| LZ4TU-5 | 2026-08-30 23:46:28 | 44.71346 | 20.56604 | 129° | 49km/h | 10043m | 4.1m/s | -40.5°C | 26.2% | 0hPa | 0V | 00:00:00 | 00:00:00 | 00:00:00 | |
| LZ4TU-5 | 2026-08-30 23:45:31 | 44.71801 | 20.55888 | 135° | 47km/h | 9728m | 6.5m/s | -37.7°C | 21.6% | 0hPa | 0V | 00:00:00 | 00:00:00 | 00:00:00 | |
| LZ4TU-5 | 2026-08-30 23:45:27 | 44.71836 | 20.55834 | 124° | 49km/h | 9705m | 4.9m/s | -37.5°C | 21.4% | 0hPa | 0V | 00:00:00 | 00:00:00 | 00:00:00 | |
| LZ4TU-5 | 2026-08-30 23:44:22 | 44.72356 | 20.54929 | 122° | 49km/h | 9360m | 3.9m/s | -34.4°C | 19.0% | 0hPa | 0V | 00:00:00 | 00:00:00 | 00:00:00 | |
| LZ4TU-5 | 2026-08-30 23:43:25 | 44.72821 | 20.54140 | 148° | 57km/h | 9042m | 4.9m/s | -32.5°C | 21.7% | 0hPa | 0V | 00:00:00 | 00:00:00 | 00:00:00 | |
| LZ4TU-5 | 2026-08-30 23:43:21 | 44.72866 | 20.54089 | 135° | 58km/h | 9021m | 6.1m/s | -32.4°C | 20.0% | 0hPa | 0V | 00:00:00 | 00:00:00 | 00:00:00 | |
| LZ4TU-5 | 2026-08-30 23:42:42 | 44.73182 | 20.53580 | 124° | 57km/h | 8820m | 6.8m/s | -31.2°C | 15.3% | 0hPa | 0V | 00:00:00 | 00:00:00 | 00:00:00 | |
| LZ4TU-5 | 2026-08-30 23:42:37 | 44.73238 | 20.53510 | 146° | 57km/h | 8790m | 5.1m/s | -31.0°C | 14.4% | 0hPa | 0V | 00:00:00 | 00:00:00 | 00:00:00 | |
| LZ4TU-5 | 2026-08-30 23:41:43 | 44.73666 | 20.52864 | 138° | 35km/h | 8489m | 7.2m/s | -28.7°C | 15.4% | 0hPa | 0V | 00:00:00 | 00:00:00 | 00:00:00 | |
| LZ4TU-5 | 2026-08-30 23:41:38 | 44.73710 | 20.52818 | 123° | 51km/h | 8465m | 5.9m/s | -28.5°C | 15.7% | 0hPa | 0V | 00:00:00 | 00:00:00 | 00:00:00 | |
| LZ4TU-5 | 2026-08-30 23:40:12 | 44.74248 | 20.51906 | 157° | 42km/h | 8015m | 3.6m/s | -24.6°C | 15.6% | 0hPa | 0V | 00:00:00 | 00:00:00 | 00:00:00 | |
| LZ4TU-5 | 2026-08-30 23:40:08 | 44.74288 | 20.51888 | 148° | 37km/h | 7990m | 7.2m/s | -24.4°C | 15.4% | 0hPa | 0V | 00:00:00 | 00:00:00 | 00:00:00 | |
| LZ4TU-5 | 2026-08-30 23:38:43 | 44.74712 | 20.51110 | 115° | 37km/h | 7526m | 5.3m/s | -20.5°C | 9.8% | 0hPa | 0V | 00:00:00 | 00:00:00 | 00:00:00 | |
| LZ4TU-5 | 2026-08-30 23:38:39 | 44.74726 | 20.51054 | 117° | 33km/h | 7508m | 4.5m/s | -20.3°C | 0% | 0hPa | 0V | 00:00:00 | 00:00:00 | 00:00:00 | |
| LZ4TU-5 | 2026-08-30 23:37:19 | 44.74972 | 20.50337 | 170° | 22km/h | 7079m | 5.5m/s | -16.6°C | 7.5% | 0hPa | 0V | 00:00:00 | 00:00:00 | 00:00:00 | |
| LZ4TU-5 | 2026-08-30 23:36:06 | 44.75252 | 20.49711 | 142° | 29km/h | 6661m | 5.7m/s | -14.1°C | 9.5% | 0hPa | 0V | 00:00:00 | 00:00:00 | 00:00:00 | |
| LZ4TU-5 | 2026-08-30 23:36:00 | 44.75279 | 20.49670 | 138° | 40km/h | 6642m | 4.9m/s | -14.0°C | 9.6% | 0hPa | 0V | 00:00:00 | 00:00:00 | 00:00:00 | |
| LZ4TU-5 | 2026-08-30 23:34:41 | 44.75619 | 20.48952 | 129° | 38km/h | 6211m | 6.3m/s | -11.2°C | 12.3% | 0hPa | 0V | 00:00:00 | 00:00:00 | 00:00:00 | |
| LZ4TU-5 | 2026-08-30 23:34:36 | 44.75614 | 20.48921 | 0° | 0km/h | 6183m | 4.3m/s | -11.0°C | 12.3% | 0hPa | 0V | 00:00:00 | 00:00:00 | 00:00:00 | |
| LZ4TU-5 | 2026-08-30 23:33:18 | 44.75813 | 20.48490 | 141° | 4km/h | 5722m | 6.8m/s | -7.8°C | 9.6% | 0hPa | 0V | 00:00:00 | 00:00:00 | 00:00:00 | |
| LZ4TU-5 | 2026-08-30 23:33:14 | 44.75833 | 20.48452 | 117° | 40km/h | 5695m | 6.0m/s | -7.7°C | 8.5% | 0hPa | 0V | 00:00:00 | 00:00:00 | 00:00:00 | |
| LZ4TU-5 | 2026-08-30 23:30:43 | 44.76085 | 20.47406 | 73° | 37km/h | 4871m | 4.3m/s | -3.8°C | 40.4% | 0hPa | 0V | 00:00:00 | 00:00:00 | 00:00:00 | |
| LZ4TU-5 | 2026-08-30 23:30:39 | 44.76078 | 20.47375 | 0° | 0km/h | 4848m | 7.7m/s | -3.5°C | 40.1% | 0hPa | 0V | 00:00:00 | 00:00:00 | 00:00:00 | |
| LZ4TU-5 | 2026-08-30 23:29:19 | 44.76171 | 20.46782 | 92° | 35km/h | 4426m | 4.4m/s | -0.3°C | 41.5% | 0hPa | 0V | 00:00:00 | 00:00:00 | 00:00:00 | |
| LZ4TU-5 | 2026-08-30 23:29:15 | 44.76184 | 20.46751 | 149° | 13km/h | 4405m | 5.2m/s | -0.1°C | 40.6% | 0hPa | 0V | 00:00:00 | 00:00:00 | 00:00:00 | |
| LZ4TU-5 | 2026-08-30 23:29:09 | 44.76156 | 20.46723 | 24° | 29km/h | 4372m | 4.0m/s | 0.2°C | 40.0% | 0hPa | 0V | 00:00:00 | 00:00:00 | 00:00:00 | |
| LZ4TU-5 | 2026-08-30 23:28:59 | 44.76144 | 20.46679 | 6° | 18km/h | 4320m | 3.5m/s | 0.8°C | 30.3% | 0hPa | 0V | 00:00:00 | 00:00:00 | 00:00:00 | |
| LZ4TU-5 | 2026-08-30 23:28:47 | 44.76140 | 20.46613 | 63° | 42km/h | 4253m | 5.5m/s | 1.3°C | 14.3% | 0hPa | 0V | 00:00:00 | 00:00:00 | 00:00:00 | |
| LZ4TU-5 | 2026-08-30 23:28:32 | 44.76105 | 20.46491 | 100° | 16km/h | 4164m | 6.8m/s | 0.4°C | 32.2% | 0hPa | 0V | 00:00:00 | 00:00:00 | 00:00:00 | |
| LZ4TU-5 | 2026-08-30 23:28:27 | 44.76113 | 20.46476 | 52° | 13km/h | 4137m | 5.0m/s | -0.1°C | 51.5% | 0hPa | 0V | 00:00:00 | 00:00:00 | 00:00:00 |